Time;durP1;ratioP1;P1;durP2;ratioP2;P2;SDS_P1;SDS_P2;PMS_P1;PMS_P2;Temp;Humidity;BMP_temperature;BMP_pressure;BME280_temperature;BME280_humidity;BME280_pressure;Samples;Min_cycle;Max_cycle;Signal;HPM_P1;HPM_P2
2021/01/08 00:01:42;;;;;;;42.83;21.93;;;-0.90;99.90;;;;;;4175075;28;20270;-39
2021/01/08 00:03:43;;;;;;;42.57;22.80;;;-0.90;99.90;;;;;;4173549;28;20329;-37
2021/01/08 00:05:44;;;;;;;47.93;25.13;;;-0.90;99.90;;;;;;4174685;28;20270;-37
2021/01/08 00:07:45;;;;;;;56.57;27.80;;;-1.00;99.90;;;;;;4172914;28;20274;-46
2021/01/08 00:09:46;;;;;;;60.87;26.87;;;-1.00;99.90;;;;;;4174853;28;20324;-37
2021/01/08 00:11:53;;;;;;;59.40;27.23;;;-1.10;99.90;;;;;;4173534;28;20683;-37
2021/01/08 00:13:54;;;;;;;54.60;28.00;;;-1.10;99.90;;;;;;4174537;28;20312;-37
2021/01/08 00:15:56;;;;;;;53.30;26.83;;;-1.10;99.90;;;;;;4173159;28;20277;-38
2021/01/08 00:17:57;;;;;;;57.30;26.23;;;-1.10;99.90;;;;;;4174228;28;20282;-37
2021/01/08 00:19:58;;;;;;;59.20;27.17;;;-1.20;99.90;;;;;;4174285;28;20404;-47
2021/01/08 00:22:00;;;;;;;59.17;26.53;;;-1.20;99.90;;;;;;4173718;28;20398;-46
2021/01/08 00:24:02;;;;;;;59.50;27.27;;;-1.20;99.90;;;;;;4173762;28;20266;-38
2021/01/08 00:26:03;;;;;;;61.33;26.50;;;-1.20;99.90;;;;;;4173030;28;20266;-38
2021/01/08 00:28:04;;;;;;;54.33;28.60;;;-1.20;99.90;;;;;;4174624;28;20278;-39
2021/01/08 00:30:08;;;;;;;59.97;28.43;;;-1.30;99.90;;;;;;4173465;28;20282;-37
2021/01/08 00:32:12;;;;;;;59.67;27.10;;;-1.20;99.90;;;;;;4173734;28;20294;-38
2021/01/08 00:34:16;;;;;;;62.57;29.43;;;-1.20;99.90;;;;;;4173259;28;20755;-39
2021/01/08 00:36:18;;;;;;;64.70;29.23;;;-1.10;99.90;;;;;;4174572;28;20343;-57
2021/01/08 00:38:19;;;;;;;61.23;28.03;;;-1.10;99.90;;;;;;4173506;28;20351;-37
2021/01/08 00:40:20;;;;;;;59.20;27.27;;;-1.10;99.90;;;;;;4174614;28;20274;-38
2021/01/08 00:42:21;;;;;;;62.13;29.20;;;-1.10;99.90;;;;;;4173567;28;20294;-58
2021/01/08 00:44:22;;;;;;;64.13;30.80;;;-1.00;99.90;;;;;;4174224;28;20278;-37
2021/01/08 00:46:38;;;;;;;70.30;34.30;;;-1.00;99.90;;;;;;4172842;28;20254;-37
2021/01/08 00:48:39;;;;;;;73.27;36.57;;;-0.90;99.90;;;;;;4174623;28;20612;-63
2021/01/08 00:50:40;;;;;;;75.93;37.50;;;-0.90;99.90;;;;;;4172682;28;20332;-38
2021/01/08 00:52:41;;;;;;;91.93;47.03;;;-0.90;99.90;;;;;;4173572;28;20623;-37
2021/01/08 00:54:44;;;;;;;75.50;38.03;;;-0.90;99.90;;;;;;4173510;28;20258;-44
2021/01/08 00:56:46;;;;;;;69.63;33.50;;;-0.80;99.90;;;;;;4173210;28;20332;-38
2021/01/08 00:58:48;;;;;;;70.87;31.90;;;-0.80;99.90;;;;;;4173684;28;20757;-38
2021/01/08 01:00:50;;;;;;;59.93;29.60;;;-0.80;99.90;;;;;;4172899;28;20770;-37
2021/01/08 01:02:51;;;;;;;63.77;31.07;;;-0.80;99.90;;;;;;4174142;28;20995;-38
2021/01/08 01:04:52;;;;;;;59.23;30.63;;;-0.80;99.90;;;;;;4173113;28;20898;-37
2021/01/08 01:06:53;;;;;;;65.53;32.77;;;-0.80;99.90;;;;;;4173779;28;20281;-38
2021/01/08 01:08:55;;;;;;;66.40;33.77;;;-0.80;99.90;;;;;;4172752;28;20281;-37
2021/01/08 01:10:57;;;;;;;71.43;37.93;;;-0.80;99.90;;;;;;4173354;28;20681;-38
2021/01/08 01:12:58;;;;;;;82.97;39.70;;;-0.70;99.90;;;;;;4173344;28;20797;-38
2021/01/08 01:15:00;;;;;;;76.77;38.13;;;-0.70;99.90;;;;;;4174602;28;20332;-37
2021/01/08 01:17:03;;;;;;;61.30;31.40;;;-0.60;99.90;;;;;;4172312;28;20282;-37
2021/01/08 01:19:05;;;;;;;63.97;33.27;;;-0.60;99.90;;;;;;4172103;28;20274;-37
2021/01/08 01:21:06;;;;;;;62.90;33.87;;;-0.60;99.90;;;;;;4171288;28;20304;-38
2021/01/08 01:23:08;;;;;;;58.17;29.07;;;-0.60;99.90;;;;;;4171849;28;20294;-40
2021/01/08 01:25:09;;;;;;;47.27;23.00;;;-0.60;99.90;;;;;;4171969;28;20278;-38
2021/01/08 01:27:10;;;;;;;46.13;22.10;;;-0.70;99.90;;;;;;4172160;28;20419;-40
2021/01/08 01:29:11;;;;;;;42.90;21.40;;;-0.70;99.90;;;;;;4171630;28;20649;-39
2021/01/08 01:31:13;;;;;;;50.17;22.10;;;-0.60;99.90;;;;;;4172899;28;20270;-36
2021/01/08 01:33:14;;;;;;;45.53;20.40;;;-0.60;99.90;;;;;;4171736;28;20328;-37
2021/01/08 01:35:15;;;;;;;41.10;21.70;;;-0.70;99.90;;;;;;4172137;28;20282;-38
2021/01/08 01:37:17;;;;;;;40.63;19.27;;;-0.70;99.90;;;;;;4173202;28;20275;-54
2021/01/08 01:39:18;;;;;;;39.90;19.83;;;-0.70;99.90;;;;;;4172219;28;20294;-41
2021/01/08 01:41:19;;;;;;;40.23;19.70;;;-0.70;99.90;;;;;;4172403;28;20282;-39
2021/01/08 01:43:20;;;;;;;41.00;18.37;;;-0.70;99.90;;;;;;4171251;28;20305;-38
2021/01/08 01:45:22;;;;;;;41.80;20.77;;;-0.80;99.90;;;;;;4171735;28;20270;-37
2021/01/08 01:47:23;;;;;;;38.23;19.13;;;-0.80;99.90;;;;;;4171667;28;20296;-36
2021/01/08 01:49:25;;;;;;;41.13;19.20;;;-0.80;99.90;;;;;;4171776;28;20262;-36
2021/01/08 01:51:26;;;;;;;36.90;18.90;;;-0.90;99.90;;;;;;4172005;28;21019;-37
2021/01/08 01:53:28;;;;;;;33.93;18.33;;;-0.80;99.90;;;;;;4171329;28;20324;-36
2021/01/08 01:55:30;;;;;;;38.40;18.23;;;-0.90;99.90;;;;;;4171758;28;20262;-38
2021/01/08 01:57:32;;;;;;;30.97;17.20;;;-1.00;99.90;;;;;;4172182;28;20312;-37
2021/01/08 01:59:33;;;;;;;38.97;19.17;;;-1.10;99.90;;;;;;4170762;28;20403;-37
2021/01/08 02:01:34;;;;;;;35.03;17.50;;;-1.10;99.90;;;;;;4171886;28;20254;-38
2021/01/08 02:03:41;;;;;;;39.20;19.97;;;-1.20;99.90;;;;;;4171765;28;20305;-36
2021/01/08 02:05:46;;;;;;;47.10;21.63;;;-1.20;99.90;;;;;;4171825;28;20278;-38
2021/01/08 02:07:55;;;;;;;51.47;23.73;;;-1.20;99.90;;;;;;4171592;28;20282;-40
2021/01/08 02:09:57;;;;;;;51.13;24.83;;;-1.20;99.90;;;;;;4171669;28;20274;-37
2021/01/08 02:11:59;;;;;;;47.03;22.17;;;-1.20;99.90;;;;;;4171524;28;20288;-39
2021/01/08 02:14:09;;;;;;;43.10;20.57;;;-1.20;99.90;;;;;;4171374;28;20312;-37
2021/01/08 02:16:12;;;;;;;51.90;22.03;;;-1.20;99.90;;;;;;4172184;28;20332;-38
2021/01/08 02:18:16;;;;;;;52.60;23.50;;;-1.20;99.90;;;;;;4171613;28;20301;-37
2021/01/08 02:20:17;;;;;;;50.90;25.50;;;-1.20;99.90;;;;;;4171424;28;20331;-36
2021/01/08 02:22:44;;;;;;;49.40;24.40;;;-1.20;99.90;;;;;;4171693;28;20254;-36
2021/01/08 02:24:57;;;;;;;52.43;24.40;;;-1.20;99.90;;;;;;4171675;28;20626;-57
2021/01/08 02:26:59;;;;;;;57.23;23.87;;;-1.10;99.90;;;;;;4171242;28;20332;-38
2021/01/08 02:29:01;;;;;;;58.83;27.27;;;-1.10;99.90;;;;;;4171462;28;20286;-37
2021/01/08 02:31:03;;;;;;;60.27;28.73;;;-1.10;99.90;;;;;;4172408;28;20270;-37
2021/01/08 02:33:04;;;;;;;53.40;26.73;;;-1.10;99.90;;;;;;4174597;28;20300;-37
2021/01/08 02:35:07;;;;;;;50.73;24.00;;;-1.10;99.90;;;;;;4174545;28;20761;-36
2021/01/08 02:37:09;;;;;;;45.63;22.53;;;-1.10;99.90;;;;;;4174293;28;20282;-38
2021/01/08 02:39:13;;;;;;;38.70;19.27;;;-1.10;99.90;;;;;;4174299;28;20352;-37
2021/01/08 02:41:15;;;;;;;35.03;17.93;;;-1.20;99.90;;;;;;4174477;28;20266;-38
2021/01/08 02:43:23;;;;;;;33.23;16.23;;;-1.30;99.90;;;;;;4173913;28;20294;-37
2021/01/08 02:45:24;;;;;;;33.90;18.20;;;-1.50;99.90;;;;;;4204920;28;20272;-39
2021/01/08 02:47:25;;;;;;;35.43;17.10;;;-1.60;99.90;;;;;;4174420;28;20282;-38
2021/01/08 02:49:26;;;;;;;37.07;17.60;;;-1.70;99.90;;;;;;4174916;28;20766;-37
2021/01/08 02:51:28;;;;;;;36.27;17.33;;;-1.70;99.90;;;;;;4173803;28;20274;-37
2021/01/08 02:53:33;;;;;;;36.27;18.40;;;-1.70;99.90;;;;;;4174310;28;20680;-38
2021/01/08 02:55:36;;;;;;;34.57;17.77;;;-1.70;99.90;;;;;;4173158;28;20343;-37
2021/01/08 02:57:38;;;;;;;39.90;17.77;;;-1.70;99.90;;;;;;4174080;28;20271;-42
2021/01/08 02:59:40;;;;;;;45.80;21.37;;;-1.80;99.90;;;;;;4174195;28;20312;-36
2021/01/08 03:01:42;;;;;;;45.13;20.67;;;-1.80;99.90;;;;;;4174316;28;20662;-37
2021/01/08 03:03:45;;;;;;;38.70;19.97;;;-1.90;99.90;;;;;;4173945;28;20301;-37
2021/01/08 03:05:46;;;;;;;39.40;20.60;;;-1.90;99.90;;;;;;4174151;28;20328;-37
2021/01/08 03:07:48;;;;;;;41.67;20.50;;;-2.00;99.90;;;;;;4174154;28;20719;-37
2021/01/08 03:09:50;;;;;;;48.03;21.43;;;-2.00;99.90;;;;;;4173964;28;20343;-38
2021/01/08 03:11:56;;;;;;;47.30;20.90;;;-2.00;99.90;;;;;;4173718;28;20332;-37
2021/01/08 03:13:57;;;;;;;40.07;20.77;;;-2.00;99.90;;;;;;4173595;28;20734;-35
2021/01/08 03:16:00;;;;;;;45.93;21.40;;;-1.90;99.90;;;;;;4173414;28;20355;-36
2021/01/08 03:18:02;;;;;;;39.33;20.20;;;-1.90;99.90;;;;;;4174313;28;21113;-38
2021/01/08 03:20:04;;;;;;;43.40;21.93;;;-1.90;99.90;;;;;;4173435;28;20274;-36
2021/01/08 03:22:06;;;;;;;45.47;19.97;;;-1.90;99.90;;;;;;4173143;28;20274;-38
2021/01/08 03:24:07;;;;;;;48.90;22.50;;;-1.90;99.90;;;;;;4173929;28;20298;-46
2021/01/08 03:26:09;;;;;;;43.13;20.57;;;-1.90;99.90;;;;;;4188059;28;21055;-36
2021/01/08 03:28:10;;;;;;;49.80;23.27;;;-1.90;99.90;;;;;;4157282;28;20278;-40
2021/01/08 03:30:12;;;;;;;58.93;24.57;;;-1.90;99.90;;;;;;4171772;28;20345;-37
2021/01/08 03:32:13;;;;;;;45.33;22.50;;;-1.90;99.90;;;;;;4157151;28;20275;-36
2021/01/08 03:34:15;;;;;;;49.80;25.10;;;-1.80;99.90;;;;;;4156761;28;20271;-35
2021/01/08 03:36:16;;;;;;;54.27;26.17;;;-1.80;99.90;;;;;;4163557;28;20293;-36
2021/01/08 03:38:17;;;;;;;50.27;23.53;;;-1.80;99.90;;;;;;4173522;28;20323;-37
2021/01/08 03:40:18;;;;;;;53.53;26.30;;;-1.70;99.90;;;;;;4173725;28;20332;-35
2021/01/08 03:42:19;;;;;;;48.07;25.17;;;-1.70;99.90;;;;;;4172984;28;20328;-37
2021/01/08 03:44:21;;;;;;;45.50;23.70;;;-1.70;99.90;;;;;;4173425;28;20699;-37
2021/01/08 03:46:22;;;;;;;50.90;23.33;;;-1.60;99.90;;;;;;4173152;28;20273;-36
2021/01/08 03:48:23;;;;;;;50.27;24.60;;;-1.60;99.90;;;;;;4173476;28;20281;-38
2021/01/08 03:50:24;;;;;;;51.20;23.53;;;-1.60;99.90;;;;;;4173808;28;20270;-36
2021/01/08 03:52:26;;;;;;;50.97;24.83;;;-1.60;99.90;;;;;;4173315;28;20270;-37
2021/01/08 03:54:27;;;;;;;52.67;24.10;;;-1.60;99.90;;;;;;4173835;28;20336;-46
2021/01/08 03:56:28;;;;;;;43.30;22.27;;;-1.60;99.90;;;;;;4172574;28;20631;-37
2021/01/08 03:58:29;;;;;;;47.53;25.10;;;-1.50;99.90;;;;;;4173471;28;20650;-36
2021/01/08 04:00:30;;;;;;;44.33;24.07;;;-1.50;99.90;;;;;;4172853;28;20346;-38
2021/01/08 04:02:31;;;;;;;46.37;22.43;;;-1.50;99.90;;;;;;4173069;28;20760;-37
2021/01/08 04:04:33;;;;;;;51.70;24.37;;;-1.50;99.90;;;;;;4172969;28;20302;-38
2021/01/08 04:06:35;;;;;;;48.70;22.63;;;-1.50;99.90;;;;;;4172844;28;21088;-39
2021/01/08 04:08:36;;;;;;;53.07;24.63;;;-1.50;99.90;;;;;;4172994;28;20270;-36
2021/01/08 04:10:37;;;;;;;50.50;24.13;;;-1.50;99.90;;;;;;4172899;28;20308;-36
2021/01/08 04:12:38;;;;;;;48.27;23.10;;;-1.50;99.90;;;;;;4204114;28;20774;-38
2021/01/08 04:14:39;;;;;;;50.77;23.97;;;-1.40;99.90;;;;;;4173128;28;20282;-36
2021/01/08 04:16:41;;;;;;;53.17;25.80;;;-1.40;99.90;;;;;;4172422;28;20308;-37
2021/01/08 04:18:42;;;;;;;55.77;26.13;;;-1.40;99.90;;;;;;4172923;28;20680;-36
2021/01/08 04:20:43;;;;;;;51.93;25.40;;;-1.40;99.90;;;;;;4173163;28;20770;-36
2021/01/08 04:22:45;;;;;;;55.40;25.43;;;-1.50;99.90;;;;;;4172519;28;20339;-37
2021/01/08 04:24:46;;;;;;;52.77;23.73;;;-1.50;99.90;;;;;;4172854;28;20360;-48
2021/01/08 04:26:47;;;;;;;56.50;25.23;;;-1.50;99.90;;;;;;4172129;28;20320;-36
2021/01/08 04:28:48;;;;;;;56.20;26.93;;;-1.50;99.90;;;;;;4173280;28;20753;-37
2021/01/08 04:30:49;;;;;;;54.47;24.77;;;-1.50;99.90;;;;;;4172460;28;20266;-37
2021/01/08 04:32:51;;;;;;;49.90;24.03;;;-1.50;99.90;;;;;;4173081;28;20312;-36
2021/01/08 04:34:52;;;;;;;58.10;26.57;;;-1.50;99.90;;;;;;4172364;28;20762;-39
2021/01/08 04:36:53;;;;;;;59.57;27.37;;;-1.50;99.90;;;;;;4179624;28;20362;-38
2021/01/08 04:38:54;;;;;;;51.63;25.17;;;-1.40;99.90;;;;;;4188429;28;20275;-36
2021/01/08 04:40:56;;;;;;;54.10;26.17;;;-1.40;99.90;;;;;;4185778;28;20277;-57
2021/01/08 04:42:57;;;;;;;61.70;26.57;;;-1.40;99.90;;;;;;4172339;28;20336;-37
2021/01/08 04:44:58;;;;;;;69.40;27.90;;;-1.40;99.90;;;;;;4172441;28;20298;-36
2021/01/08 04:47:00;;;;;;;62.53;27.70;;;-1.40;99.90;;;;;;4172353;28;20274;-37
2021/01/08 04:49:04;;;;;;;62.50;28.57;;;-1.40;99.90;;;;;;4172959;28;20270;-35
2021/01/08 04:51:06;;;;;;;64.27;28.83;;;-1.40;99.90;;;;;;4172284;28;20278;-38
2021/01/08 04:53:09;;;;;;;65.60;28.23;;;-1.40;99.90;;;;;;4172380;28;20630;-37
2021/01/08 04:55:11;;;;;;;61.90;27.60;;;-1.40;99.90;;;;;;4169997;28;20324;-37
2021/01/08 04:57:13;;;;;;;58.53;27.80;;;-1.40;99.90;;;;;;4172330;28;20336;-55
2021/01/08 04:59:15;;;;;;;62.33;28.10;;;-1.40;99.90;;;;;;4172474;28;20270;-36
2021/01/08 05:01:16;;;;;;;55.83;26.07;;;-1.40;99.90;;;;;;4170782;28;20844;-39
2021/01/08 05:03:18;;;;;;;52.27;26.43;;;-1.40;99.90;;;;;;4170454;28;20746;-37
2021/01/08 05:05:20;;;;;;;59.13;27.53;;;-1.40;99.90;;;;;;4170174;28;20396;-38
2021/01/08 05:07:22;;;;;;;54.20;26.73;;;-1.40;99.90;;;;;;4172158;28;20277;-34
2021/01/08 05:09:23;;;;;;;54.73;26.70;;;-1.50;99.90;;;;;;4172023;28;20269;-42
2021/01/08 05:11:25;;;;;;;55.63;26.53;;;-1.40;99.90;;;;;;4171281;28;20258;-37
2021/01/08 05:13:34;;;;;;;53.07;27.83;;;-1.50;99.90;;;;;;4171506;28;20737;-38
2021/01/08 05:15:35;;;;;;;53.50;25.50;;;-1.50;99.90;;;;;;4171482;28;20284;-36
2021/01/08 05:17:38;;;;;;;50.77;25.17;;;-1.50;99.90;;;;;;4170588;28;20328;-36
2021/01/08 05:19:47;;;;;;;46.70;24.83;;;-1.50;99.90;;;;;;4172624;28;20331;-35
2021/01/08 05:21:48;;;;;;;51.47;23.60;;;-1.50;99.90;;;;;;4171396;28;20759;-35
2021/01/08 05:23:49;;;;;;;47.60;24.40;;;-1.50;99.90;;;;;;4172022;28;20294;-35
2021/01/08 05:25:50;;;;;;;52.37;25.33;;;-1.50;99.90;;;;;;4171731;28;20277;-36
2021/01/08 05:27:52;;;;;;;55.83;27.13;;;-1.40;99.90;;;;;;4171531;28;20659;-35
2021/01/08 05:29:53;;;;;;;81.43;35.50;;;-1.40;99.90;;;;;;4171870;28;21135;-37
2021/01/08 05:31:54;;;;;;;61.73;28.80;;;-1.30;99.90;;;;;;4172098;28;20336;-36
2021/01/08 05:33:56;;;;;;;56.27;27.90;;;-1.20;99.90;;;;;;4172667;28;20712;-37
2021/01/08 05:35:58;;;;;;;64.33;28.43;;;-1.30;99.90;;;;;;4171166;28;20270;-39
2021/01/08 05:38:06;;;;;;;66.27;29.27;;;-1.40;99.90;;;;;;4172431;28;20327;-36
2021/01/08 05:40:09;;;;;;;58.83;28.10;;;-1.50;99.90;;;;;;4170817;28;20277;-36
2021/01/08 05:42:11;;;;;;;61.43;29.60;;;-1.50;99.90;;;;;;4171704;28;21083;-34
2021/01/08 05:44:14;;;;;;;58.27;27.53;;;-1.50;99.90;;;;;;4170980;28;20286;-36
2021/01/08 05:46:19;;;;;;;67.13;28.57;;;-1.50;99.90;;;;;;4171848;28;20348;-33
2021/01/08 05:48:21;;;;;;;65.47;30.67;;;-1.50;99.90;;;;;;4171459;28;20282;-34
2021/01/08 05:50:24;;;;;;;60.07;28.07;;;-1.40;99.90;;;;;;4170970;28;20298;-60
2021/01/08 05:52:26;;;;;;;56.77;28.13;;;-1.30;99.90;;;;;;4171291;28;21931;-41
2021/01/08 05:54:28;;;;;;;53.10;26.23;;;-1.20;99.90;;;;;;4171768;28;20273;-39
2021/01/08 05:56:34;;;;;;;57.67;26.97;;;-1.20;99.90;;;;;;4171448;28;20765;-46
2021/01/08 05:58:36;;;;;;;51.93;25.93;;;-1.20;99.90;;;;;;4171321;28;20262;-36
2021/01/08 06:00:37;;;;;;;62.80;30.23;;;-1.20;99.90;;;;;;4171852;28;20685;-36
2021/01/08 06:02:39;;;;;;;61.90;29.03;;;-1.10;99.90;;;;;;4170891;28;20266;-46
2021/01/08 06:04:40;;;;;;;60.13;27.97;;;-1.20;99.90;;;;;;4171787;28;20352;-41
2021/01/08 06:06:43;;;;;;;52.50;27.37;;;-1.20;99.90;;;;;;4172079;28;20855;-40
2021/01/08 06:08:53;;;;;;;55.10;27.43;;;-1.20;99.90;;;;;;4173268;28;20328;-37
2021/01/08 06:10:57;;;;;;;45.40;22.88;;;-1.30;99.90;;;;;;4174163;28;20262;-40
2021/01/08 06:13:00;;;;;;;54.20;26.40;;;-1.30;99.90;;;;;;4174960;28;20033;-37
2021/01/08 06:15:03;;;;;;;49.50;23.97;;;-1.40;99.90;;;;;;4173715;28;21220;-34
2021/01/08 06:17:07;;;;;;;53.70;25.50;;;-1.40;99.90;;;;;;4174420;28;20282;-35
2021/01/08 06:19:09;;;;;;;57.23;26.93;;;-1.40;99.90;;;;;;4173906;28;20355;-36
2021/01/08 06:21:10;;;;;;;64.63;28.17;;;-1.50;99.90;;;;;;4173979;28;20281;-37
2021/01/08 06:23:42;;;;;;;58.53;26.23;;;-1.50;99.90;;;;;;4174075;28;20730;-35
2021/01/08 06:25:44;;;;;;;49.23;24.87;;;-1.50;99.90;;;;;;4174450;28;20290;-35
2021/01/08 06:27:48;;;;;;;55.23;25.13;;;-1.50;99.90;;;;;;4174071;28;20285;-36
2021/01/08 06:29:58;;;;;;;53.20;26.93;;;-1.40;99.90;;;;;;4173997;28;20286;-37
2021/01/08 06:32:23;;;;;;;55.60;28.02;;;-1.40;99.90;;;;;;4173388;28;20340;-51
2021/01/08 06:34:29;;;;;;;56.90;28.13;;;-1.50;99.90;;;;;;4174662;28;20025;-36
2021/01/08 06:36:32;;;;;;;59.57;29.63;;;-1.40;99.90;;;;;;4174029;28;20292;-35
2021/01/08 06:38:38;;;;;;;62.37;30.33;;;-1.40;99.90;;;;;;4174377;28;20653;-34
2021/01/08 06:40:41;;;;;;;68.90;33.17;;;-1.40;99.90;;;;;;4174270;28;20312;-36
2021/01/08 06:42:45;;;;;;;67.63;33.17;;;-1.40;99.90;;;;;;4174311;28;20592;-37
2021/01/08 06:44:47;;;;;;;74.80;35.60;;;-1.50;99.90;;;;;;4173445;28;20290;-53
2021/01/08 06:46:50;;;;;;;75.30;36.53;;;-1.50;99.90;;;;;;4174467;28;20419;-36
2021/01/08 06:49:00;;;;;;;84.27;40.67;;;-1.40;99.90;;;;;;4174086;28;20270;-35
2021/01/08 06:51:06;;;;;;;78.47;38.67;;;-1.40;99.90;;;;;;4174159;28;20269;-34
2021/01/08 06:53:15;;;;;;;81.47;41.03;;;-1.40;99.90;;;;;;4173389;28;20658;-34
2021/01/08 06:55:18;;;;;;;76.13;37.40;;;-1.40;99.90;;;;;;4174202;28;20352;-35
2021/01/08 06:57:23;;;;;;;76.57;36.87;;;-1.40;99.90;;;;;;4174058;28;20538;-41
2021/01/08 06:59:33;;;;;;;74.57;36.07;;;-1.40;99.90;;;;;;4173866;28;20270;-36
2021/01/08 07:01:55;;;;;;;69.10;33.77;;;-1.40;99.90;;;;;;4173650;28;20620;-37
2021/01/08 07:03:59;;;;;;;74.40;34.77;;;-1.40;99.90;;;;;;4174061;28;20392;-37
2021/01/08 07:06:00;;;;;;;79.73;35.73;;;-1.40;99.90;;;;;;4173042;28;20750;-37
2021/01/08 07:08:03;;;;;;;78.00;37.20;;;-1.40;99.90;;;;;;4173955;28;20320;-37
2021/01/08 07:10:05;;;;;;;79.83;38.73;;;-1.30;99.90;;;;;;4173712;28;20359;-37
2021/01/08 07:12:12;;;;;;;76.03;37.37;;;-1.20;99.90;;;;;;4173523;28;20685;-43
2021/01/08 07:14:15;;;;;;;85.13;38.70;;;-1.30;99.90;;;;;;4173444;28;20274;-40
2021/01/08 07:16:20;;;;;;;80.47;33.93;;;-1.30;99.90;;;;;;4173270;28;20270;-37
2021/01/08 07:18:27;;;;;;;65.43;32.60;;;-1.30;99.90;;;;;;4173227;28;20278;-37
2021/01/08 07:20:29;;;;;;;72.07;34.87;;;-1.30;99.90;;;;;;4171894;28;20278;-37
2021/01/08 07:22:36;;;;;;;70.03;32.57;;;-1.30;99.90;;;;;;4173964;28;21010;-37
2021/01/08 07:24:38;;;;;;;69.33;32.60;;;-1.30;99.90;;;;;;4172933;28;20770;-38
2021/01/08 07:26:40;;;;;;;81.80;38.80;;;-1.30;99.90;;;;;;4173864;28;20706;-36
2021/01/08 07:28:47;;;;;;;78.77;36.03;;;-1.30;99.90;;;;;;4173025;28;20281;-39
2021/01/08 07:31:07;;;;;;;203.20;83.47;;;-1.40;99.90;;;;;;4172854;28;20727;-37
2021/01/08 07:33:16;;;;;;;255.07;101.63;;;-1.40;99.90;;;;;;4172755;28;20274;-36
2021/01/08 07:35:29;;;;;;;274.53;110.90;;;-1.40;99.90;;;;;;4173235;28;20669;-37
2021/01/08 07:38:04;;;;;;;214.57;87.97;;;-1.30;99.90;;;;;;4173080;28;20274;-37
2021/01/08 07:40:06;;;;;;;301.03;118.97;;;-1.30;99.90;;;;;;4173198;28;20705;-37
2021/01/08 07:42:29;;;;;;;658.03;302.43;;;-1.30;99.90;;;;;;4173472;28;20308;-36
2021/01/08 07:44:34;;;;;;;363.93;145.33;;;-1.20;99.90;;;;;;4173189;28;20359;-37
2021/01/08 07:46:35;;;;;;;132.40;61.53;;;-1.20;99.90;;;;;;4172392;28;20278;-37
2021/01/08 07:48:40;;;;;;;112.47;52.33;;;-1.20;99.90;;;;;;4173036;28;20766;-42
2021/01/08 07:51:02;;;;;;;91.07;47.60;;;-1.20;99.90;;;;;;4172944;28;20331;-36
2021/01/08 07:53:03;;;;;;;82.33;39.47;;;-1.20;99.90;;;;;;4173170;28;20270;-37
2021/01/08 07:55:05;;;;;;;71.50;36.53;;;-1.10;99.90;;;;;;4171136;28;20286;-40
2021/01/08 07:57:06;;;;;;;86.43;40.97;;;-1.10;99.90;;;;;;4172908;28;20749;-38
2021/01/08 07:59:07;;;;;;;92.13;44.03;;;-1.10;99.90;;;;;;4172748;28;20710;-37
2021/01/08 08:01:13;;;;;;;73.73;36.97;;;-1.10;99.90;;;;;;4173235;28;20348;-37
2021/01/08 08:03:14;;;;;;;77.80;37.17;;;-1.10;99.90;;;;;;4172461;28;20335;-37
2021/01/08 08:05:18;;;;;;;75.83;38.37;;;-1.10;99.90;;;;;;4172247;28;20294;-37
2021/01/08 08:07:22;;;;;;;79.33;38.03;;;-1.00;99.90;;;;;;4172606;28;20262;-37
2021/01/08 08:09:23;;;;;;;95.13;43.00;;;-1.00;99.90;;;;;;4172980;28;20312;-37
2021/01/08 08:11:32;;;;;;;84.23;39.77;;;-1.00;99.90;;;;;;4172271;28;20308;-37
2021/01/08 08:13:34;;;;;;;84.80;41.63;;;-1.00;99.90;;;;;;4172534;28;20360;-47
2021/01/08 08:15:46;;;;;;;83.87;39.53;;;-0.90;99.90;;;;;;4172783;28;20266;-37
2021/01/08 08:17:48;;;;;;;183.27;78.00;;;-0.90;99.90;;;;;;4172502;28;20318;-39
2021/01/08 08:19:49;;;;;;;175.10;77.77;;;-0.90;99.90;;;;;;4172808;28;20281;-37
2021/01/08 08:21:51;;;;;;;206.27;82.40;;;-0.80;99.90;;;;;;4172346;28;21241;-37
2021/01/08 08:24:00;;;;;;;130.33;59.33;;;-0.80;99.90;;;;;;4172412;28;20758;-36
2021/01/08 08:26:02;;;;;;;102.93;44.93;;;-0.80;99.90;;;;;;4171913;28;20286;-36
2021/01/08 08:28:04;;;;;;;83.90;38.13;;;-0.70;99.90;;;;;;4170317;28;20642;-37
2021/01/08 08:30:14;;;;;;;74.30;37.83;;;-0.60;99.90;;;;;;4171896;28;20278;-38
2021/01/08 08:32:16;;;;;;;148.50;62.53;;;-0.60;99.90;;;;;;4172523;28;20270;-37
2021/01/08 08:34:32;;;;;;;148.43;67.27;;;-0.50;99.90;;;;;;4172024;28;20380;-37
2021/01/08 08:36:33;;;;;;;144.20;67.47;;;-0.40;99.90;;;;;;4172255;28;20266;-37
2021/01/08 08:38:35;;;;;;;170.77;73.97;;;-0.40;99.90;;;;;;4172457;28;20269;-37
2021/01/08 08:40:36;;;;;;;141.23;59.07;;;-0.50;99.90;;;;;;4172118;28;20274;-54
2021/01/08 08:42:37;;;;;;;97.93;47.47;;;-0.50;99.90;;;;;;4171734;28;20331;-36
2021/01/08 08:44:42;;;;;;;70.83;35.47;;;-0.50;99.90;;;;;;4172284;28;20314;-36
2021/01/08 08:46:45;;;;;;;80.43;39.23;;;-0.40;99.90;;;;;;4171570;28;20762;-37
2021/01/08 08:48:47;;;;;;;69.10;34.87;;;-0.50;99.90;;;;;;4172015;28;20282;-46
2021/01/08 08:50:49;;;;;;;60.17;31.87;;;-0.40;99.90;;;;;;4171752;28;20258;-38
2021/01/08 08:52:51;;;;;;;55.57;29.47;;;-0.40;99.90;;;;;;4172244;28;20278;-38
2021/01/08 08:54:52;;;;;;;50.03;28.37;;;-0.40;99.90;;;;;;4171891;28;20328;-39
2021/01/08 08:56:55;;;;;;;65.67;31.53;;;-0.30;99.90;;;;;;4171761;28;20278;-38
2021/01/08 08:58:57;;;;;;;63.70;31.43;;;-0.20;99.90;;;;;;4170948;28;20278;-39
2021/01/08 09:00:58;;;;;;;62.77;31.40;;;-0.20;99.90;;;;;;4171856;28;20355;-38
2021/01/08 09:02:59;;;;;;;59.63;30.53;;;-0.20;99.90;;;;;;4171973;28;20278;-38
2021/01/08 09:05:04;;;;;;;82.10;37.80;;;-0.10;99.90;;;;;;4172169;28;21017;-38
2021/01/08 09:07:18;;;;;;;105.97;46.43;;;0.00;99.90;;;;;;4171753;28;20359;-38
2021/01/08 09:09:24;;;;;;;106.47;47.00;;;0.00;99.90;;;;;;4171764;28;20281;-38
2021/01/08 09:11:33;;;;;;;121.13;49.03;;;0.00;99.90;;;;;;4172047;28;20328;-38
2021/01/08 09:13:59;;;;;;;141.33;63.80;;;0.00;99.90;;;;;;4171258;28;20332;-38
2021/01/08 09:16:09;;;;;;;158.10;67.10;;;0.00;99.90;;;;;;4171971;28;20312;-37
2021/01/08 09:18:16;;;;;;;138.35;62.85;;;0.10;99.90;;;;;;4172021;28;20286;-37
2021/01/08 09:20:25;;;;;;;139.43;59.67;;;0.10;99.90;;;;;;4172016;28;20098;-38
2021/01/08 09:22:28;;;;;;;97.57;47.23;;;0.20;99.90;;;;;;4171806;28;20278;-39
2021/01/08 09:24:32;;;;;;;93.53;44.27;;;0.20;99.90;;;;;;4171284;28;20318;-38
2021/01/08 09:26:34;;;;;;;82.07;40.13;;;0.20;99.90;;;;;;4171880;28;20626;-38
2021/01/08 09:28:46;;;;;;;77.77;39.10;;;0.20;99.90;;;;;;4171561;28;20750;-38
2021/01/08 09:30:51;;;;;;;95.83;44.07;;;0.20;99.90;;;;;;4171445;28;20348;-46
2021/01/08 09:32:52;;;;;;;125.90;54.73;;;0.20;99.90;;;;;;4203333;28;20281;-51
2021/01/08 09:34:59;;;;;;;138.50;61.23;;;0.20;99.90;;;;;;4171494;28;20379;-39
2021/01/08 09:37:15;;;;;;;113.47;52.77;;;0.20;99.90;;;;;;4170558;28;20781;-39
2021/01/08 09:39:18;;;;;;;78.97;37.30;;;0.30;99.90;;;;;;4171301;28;20824;-38
2021/01/08 09:41:19;;;;;;;66.20;35.50;;;0.30;99.90;;;;;;4173957;28;20273;-46
2021/01/08 09:43:21;;;;;;;61.40;32.87;;;0.30;99.90;;;;;;4174652;28;20296;-39
2021/01/08 09:45:24;;;;;;;59.87;32.20;;;0.40;99.90;;;;;;4175219;28;20298;-37
2021/01/08 09:47:33;;;;;;;67.80;35.23;;;0.40;99.90;;;;;;4174616;28;20262;-38
2021/01/08 09:49:42;;;;;;;67.07;34.30;;;0.40;99.90;;;;;;4174840;28;20270;-56
2021/01/08 09:51:43;;;;;;;73.53;37.67;;;0.40;99.90;;;;;;4174640;28;20332;-37
2021/01/08 09:53:54;;;;;;;65.37;35.20;;;0.50;99.90;;;;;;4174866;28;20316;-38
2021/01/08 09:56:16;;;;;;;72.13;38.47;;;0.60;99.90;;;;;;4173945;28;20277;-41
2021/01/08 09:58:17;;;;;;;73.60;38.43;;;0.60;99.90;;;;;;4175076;28;20281;-38
2021/01/08 10:00:36;;;;;;;66.70;36.43;;;0.60;99.90;;;;;;4173919;28;20290;-39
2021/01/08 10:02:47;;;;;;;69.17;37.23;;;0.50;99.90;;;;;;4174603;28;20278;-40
2021/01/08 10:04:48;;;;;;;68.20;36.13;;;0.50;99.90;;;;;;4174527;28;20294;-36
2021/01/08 10:07:01;;;;;;;74.97;36.67;;;0.50;99.90;;;;;;4174980;28;20719;-38
2021/01/08 10:09:04;;;;;;;63.73;35.43;;;0.60;99.90;;;;;;4174043;28;20274;-38
2021/01/08 10:11:06;;;;;;;70.37;36.40;;;0.60;99.90;;;;;;4174016;28;20324;-39
2021/01/08 10:13:19;;;;;;;63.33;35.50;;;0.70;99.90;;;;;;4174441;28;20266;-37
2021/01/08 10:15:40;;;;;;;69.93;37.50;;;0.80;99.90;;;;;;4174951;28;20320;-37
2021/01/08 10:17:45;;;;;;;70.88;38.67;;;0.80;99.90;;;;;;4174262;28;20290;-51
2021/01/08 10:19:47;;;;;;;64.90;36.83;;;0.80;99.90;;;;;;4174498;28;20083;-51
2021/01/08 10:21:48;;;;;;;70.77;36.97;;;0.80;99.90;;;;;;4174174;28;20351;-37
2021/01/08 10:23:50;;;;;;;71.70;37.60;;;0.90;99.90;;;;;;4174207;28;20796;-46
2021/01/08 10:25:52;;;;;;;67.70;37.00;;;1.00;99.90;;;;;;4173686;28;20293;-36
2021/01/08 10:28:12;;;;;;;67.80;36.33;;;1.10;99.90;;;;;;4174557;28;20674;-37
2021/01/08 10:30:13;;;;;;;72.13;37.10;;;1.20;99.90;;;;;;4173912;28;20274;-37